1B6 weather

Hopedale Industrial Park Airport
Hopedale, Massachusetts, United States

Public forecast

Using degrees Fahrenheit for public forecast. Weather courtesy of forecast.io.

METAR (pilot weather report)

Closest report is North Central State Airport, 11.2 nm (20.7 km) S. Retrieved 2019/09/22 07:56 UTC (58 minutes ago):

KSFZ 220756Z AUTO 22003KT 10SM CLR 14/13 A3017 RMK AO2 SLP161 T01440128

TAF (pilot weather forecast)

Closest forecast is Worcester Regional Airport, 18.9 nm (35.0 km) WNW. Retrieved 2019/09/22 06:33 UTC (2 hours ago):

TAF KORH 220530Z 2206/2306 24008KT P6SM SKC FM230100 23010KT P6SM FEW250